createdAt,value
2016-10-03T00:00:15.314Z,0
2016-10-03T00:01:15.396Z,0
2016-10-03T00:02:15.412Z,0
2016-10-03T00:03:15.463Z,0
2016-10-03T00:04:15.534Z,0
2016-10-03T00:05:15.600Z,0
2016-10-03T00:06:15.662Z,0
2016-10-03T00:07:15.696Z,0
2016-10-03T00:08:15.793Z,0
2016-10-03T00:09:15.833Z,0
2016-10-03T00:10:15.902Z,0
2016-10-03T00:11:15.936Z,0
2016-10-03T00:12:15.998Z,0
2016-10-03T00:13:16.077Z,0
2016-10-03T00:14:16.413Z,0
2016-10-03T00:15:16.173Z,0
2016-10-03T00:16:16.220Z,0
2016-10-03T00:17:16.290Z,0
2016-10-03T00:18:16.360Z,0
2016-10-03T00:19:16.399Z,0
2016-10-03T00:20:16.462Z,0
2016-10-03T00:21:16.512Z,0
2016-10-03T00:22:16.590Z,0
2016-10-03T00:23:16.622Z,0
2016-10-03T00:24:16.698Z,0
2016-10-03T00:25:16.733Z,0
2016-10-03T00:26:16.809Z,0
2016-10-03T00:27:16.848Z,0
2016-10-03T00:28:16.920Z,0
2016-10-03T00:29:16.970Z,0
2016-10-03T00:30:17.008Z,0
2016-10-03T00:31:17.081Z,0
2016-10-03T00:32:17.137Z,0
2016-10-03T00:33:17.188Z,0
2016-10-03T00:34:17.245Z,0
2016-10-03T00:35:17.320Z,0
2016-10-03T00:36:17.362Z,0
2016-10-03T00:37:17.424Z,0
2016-10-03T00:38:17.487Z,0
2016-10-03T00:39:17.542Z,0
2016-10-03T00:40:17.606Z,0
2016-10-03T00:41:17.646Z,0
2016-10-03T00:42:17.701Z,0
2016-10-03T00:43:17.766Z,0
2016-10-03T00:44:17.847Z,0
2016-10-03T00:45:17.907Z,0
2016-10-03T00:46:17.914Z,0
2016-10-03T00:47:17.997Z,0
2016-10-03T00:48:18.034Z,0
2016-10-03T00:49:18.442Z,0
2016-10-03T00:50:18.137Z,0
2016-10-03T00:51:18.247Z,0
2016-10-03T00:52:18.268Z,0
2016-10-03T00:53:18.340Z,0
2016-10-03T00:54:18.402Z,0
2016-10-03T00:55:18.448Z,0
2016-10-03T00:56:18.511Z,0
2016-10-03T00:57:18.897Z,0
2016-10-03T00:58:18.628Z,0
2016-10-03T00:59:18.691Z,0
2016-10-03T01:00:18.744Z,0
2016-10-03T01:01:18.788Z,0
2016-10-03T01:02:18.844Z,0
2016-10-03T01:03:18.907Z,0
2016-10-03T01:04:18.967Z,0
2016-10-03T01:05:19.017Z,0
2016-10-03T01:06:19.082Z,0
2016-10-03T01:07:19.126Z,0
2016-10-03T01:08:19.165Z,0
2016-10-03T01:09:19.528Z,0
2016-10-03T01:10:19.285Z,0
2016-10-03T01:11:19.365Z,0
2016-10-03T01:12:19.412Z,0
2016-10-03T01:13:19.490Z,0
2016-10-03T01:14:19.540Z,0
2016-10-03T01:15:19.591Z,0
2016-10-03T01:16:19.659Z,0
2016-10-03T01:17:19.708Z,0
2016-10-03T01:18:19.730Z,0
2016-10-03T01:19:19.804Z,0
2016-10-03T01:20:19.865Z,0
2016-10-03T01:21:19.911Z,0
2016-10-03T01:22:19.989Z,0
2016-10-03T01:23:20.047Z,0
2016-10-03T01:24:20.089Z,0
2016-10-03T01:25:20.148Z,0
2016-10-03T01:26:20.214Z,0
2016-10-03T01:27:20.280Z,0
2016-10-03T01:28:20.302Z,0
2016-10-03T01:29:20.381Z,0
2016-10-03T01:30:20.464Z,0
2016-10-03T01:31:20.488Z,0
2016-10-03T01:32:20.547Z,0
2016-10-03T01:33:20.625Z,0
2016-10-03T01:34:20.657Z,0
2016-10-03T01:35:20.728Z,0
2016-10-03T01:36:20.779Z,0
2016-10-03T01:37:20.847Z,0
2016-10-03T01:38:20.920Z,0
2016-10-03T01:39:20.931Z,0
2016-10-03T01:40:21.022Z,0
2016-10-03T01:41:21.050Z,0
2016-10-03T01:42:21.116Z,0
2016-10-03T01:43:21.192Z,0
2016-10-03T01:44:21.226Z,0
2016-10-03T01:45:21.306Z,0
2016-10-03T01:46:21.376Z,0
2016-10-03T01:47:21.427Z,0
2016-10-03T01:48:21.472Z,0
2016-10-03T01:49:21.513Z,0
2016-10-03T01:50:21.606Z,0
2016-10-03T01:51:21.624Z,0
2016-10-03T01:52:21.684Z,0
2016-10-03T01:53:21.767Z,0
2016-10-03T01:54:21.807Z,0
2016-10-03T01:55:21.863Z,0
2016-10-03T01:56:21.943Z,0
2016-10-03T01:57:21.953Z,0
2016-10-03T01:58:22.045Z,0
2016-10-03T01:59:22.094Z,0
2016-10-03T02:00:22.141Z,0
2016-10-03T02:01:22.217Z,0
2016-10-03T02:02:22.275Z,0
2016-10-03T02:03:22.305Z,0
2016-10-03T02:04:22.367Z,0
2016-10-03T02:05:22.439Z,0
2016-10-03T02:06:22.496Z,0
2016-10-03T02:07:22.545Z,0
2016-10-03T02:08:22.587Z,0
2016-10-03T02:09:22.979Z,0
2016-10-03T02:10:22.709Z,0
2016-10-03T02:11:22.748Z,0
2016-10-03T02:12:22.850Z,0
2016-10-03T02:13:22.871Z,0
2016-10-03T02:14:22.935Z,0
2016-10-03T02:15:22.997Z,0
2016-10-03T02:16:23.043Z,0
2016-10-03T02:17:23.109Z,0
2016-10-03T02:18:23.171Z,0
2016-10-03T02:19:23.212Z,0
2016-10-03T02:20:23.289Z,0
2016-10-03T02:21:23.347Z,0
2016-10-03T02:22:23.431Z,0
2016-10-03T02:23:23.448Z,0
2016-10-03T02:24:23.517Z,0
2016-10-03T02:25:23.595Z,0
2016-10-03T02:26:23.613Z,0
2016-10-03T02:27:23.693Z,0
2016-10-03T02:28:23.743Z,0
2016-10-03T02:29:23.807Z,0
2016-10-03T02:30:23.879Z,0
2016-10-03T02:31:23.896Z,0
2016-10-03T02:32:23.956Z,0
2016-10-03T02:33:24.015Z,0
2016-10-03T02:34:24.069Z,0
2016-10-03T02:35:24.132Z,0
2016-10-03T02:36:24.189Z,0
2016-10-03T02:37:24.240Z,0
2016-10-03T02:38:24.303Z,0
2016-10-03T02:39:24.361Z,0
2016-10-03T02:40:24.414Z,0
2016-10-03T02:41:24.474Z,0
2016-10-03T02:42:24.531Z,0
2016-10-03T02:43:24.611Z,0
2016-10-03T02:44:24.625Z,0
2016-10-03T02:45:24.691Z,0
2016-10-03T02:46:24.777Z,0
2016-10-03T02:47:24.837Z,0
2016-10-03T02:48:25.175Z,0
2016-10-03T02:49:24.951Z,0
2016-10-03T02:50:24.978Z,0
2016-10-03T02:51:25.036Z,0
2016-10-03T02:52:25.074Z,0
2016-10-03T02:53:25.159Z,0
2016-10-03T02:54:25.225Z,0
2016-10-03T02:55:25.287Z,0
2016-10-03T02:56:25.322Z,0
2016-10-03T02:57:25.401Z,0
2016-10-03T02:58:25.468Z,0
2016-10-03T02:59:25.498Z,0
2016-10-03T03:00:25.569Z,0
2016-10-03T03:01:25.628Z,0
2016-10-03T03:02:25.663Z,0
2016-10-03T03:03:25.758Z,0
2016-10-03T03:04:25.791Z,0
2016-10-03T03:05:25.866Z,0
2016-10-03T03:06:25.909Z,0
2016-10-03T03:07:25.949Z,0
2016-10-03T03:08:26.016Z,0
2016-10-03T03:09:26.078Z,0
2016-10-03T03:10:26.149Z,0
2016-10-03T03:11:26.153Z,0
2016-10-03T03:12:26.248Z,0
2016-10-03T03:13:26.283Z,0
2016-10-03T03:14:26.350Z,0
2016-10-03T03:15:26.418Z,0
2016-10-03T03:16:26.475Z,0
2016-10-03T03:17:26.530Z,0
2016-10-03T03:18:26.586Z,0
2016-10-03T03:19:26.648Z,0
2016-10-03T03:20:26.710Z,0
2016-10-03T03:21:26.746Z,0
2016-10-03T03:22:26.815Z,0
2016-10-03T03:23:26.880Z,0
2016-10-03T03:24:26.928Z,0
2016-10-03T03:25:26.969Z,0
2016-10-03T03:26:27.050Z,0
2016-10-03T03:27:27.078Z,0
2016-10-03T03:28:27.148Z,0
2016-10-03T03:29:27.220Z,0
2016-10-03T03:30:27.260Z,0
2016-10-03T03:31:27.306Z,0
2016-10-03T03:32:27.381Z,0
2016-10-03T03:33:27.512Z,0
2016-10-03T03:34:27.463Z,0
2016-10-03T03:35:27.571Z,0
2016-10-03T03:36:27.617Z,0
2016-10-03T03:37:27.677Z,0
2016-10-03T03:38:27.712Z,0
2016-10-03T03:39:27.764Z,0
2016-10-03T03:40:27.823Z,0
2016-10-03T03:41:27.893Z,0
2016-10-03T03:42:27.949Z,0
2016-10-03T03:43:27.978Z,0
2016-10-03T03:44:28.049Z,0
2016-10-03T03:45:28.126Z,0
2016-10-03T03:46:28.153Z,0
2016-10-03T03:47:28.219Z,0
2016-10-03T03:48:28.272Z,0
2016-10-03T03:49:28.323Z,0
2016-10-03T03:50:28.384Z,0
2016-10-03T03:51:28.448Z,0
2016-10-03T03:52:28.496Z,0
2016-10-03T03:53:28.576Z,0
2016-10-03T03:54:28.626Z,0
2016-10-03T03:55:28.702Z,0
2016-10-03T03:56:28.730Z,0
2016-10-03T03:57:28.789Z,0
2016-10-03T03:58:28.855Z,0
2016-10-03T03:59:28.914Z,0
2016-10-03T04:00:28.975Z,0
2016-10-03T04:01:29.010Z,0
2016-10-03T04:02:29.088Z,0
2016-10-03T04:03:29.118Z,0
2016-10-03T04:04:29.182Z,0
2016-10-03T04:05:29.267Z,0
2016-10-03T04:06:29.302Z,0
2016-10-03T04:07:29.373Z,0
2016-10-03T04:08:29.399Z,0
2016-10-03T04:09:29.488Z,0
2016-10-03T04:10:29.535Z,0
2016-10-03T04:11:29.914Z,0
2016-10-03T04:12:29.639Z,0
2016-10-03T04:13:29.702Z,0
2016-10-03T04:14:29.765Z,0
2016-10-03T04:15:29.820Z,0
2016-10-03T04:16:29.879Z,0
2016-10-03T04:17:29.926Z,0
2016-10-03T04:18:29.989Z,0
2016-10-03T04:19:30.027Z,0
2016-10-03T04:20:30.114Z,0
2016-10-03T04:21:30.177Z,0
2016-10-03T04:22:30.214Z,0
2016-10-03T04:23:30.276Z,0
2016-10-03T04:24:30.338Z,0
2016-10-03T04:25:30.378Z,0
2016-10-03T04:26:30.434Z,0
2016-10-03T04:27:30.494Z,0
2016-10-03T04:28:30.553Z,0
2016-10-03T04:29:30.608Z,0
2016-10-03T04:30:30.671Z,0
2016-10-03T04:31:30.760Z,0
2016-10-03T04:32:30.784Z,0
2016-10-03T04:33:30.854Z,0
2016-10-03T04:34:30.917Z,0
2016-10-03T04:35:30.952Z,0
2016-10-03T04:36:31.012Z,0
2016-10-03T04:37:31.060Z,0
2016-10-03T04:38:31.121Z,0
2016-10-03T04:39:31.185Z,0
2016-10-03T04:40:31.263Z,0
2016-10-03T04:41:31.327Z,0
2016-10-03T04:42:31.363Z,0
2016-10-03T04:43:31.407Z,0
2016-10-03T04:44:31.486Z,0
2016-10-03T04:45:31.521Z,0
2016-10-03T04:46:31.607Z,0
2016-10-03T04:47:31.666Z,0
2016-10-03T04:48:31.730Z,0
2016-10-03T04:49:31.769Z,0
2016-10-03T04:50:31.820Z,0
2016-10-03T04:51:31.871Z,0
2016-10-03T04:52:31.966Z,0
2016-10-03T04:53:31.989Z,0
2016-10-03T04:54:32.040Z,0
2016-10-03T04:55:32.094Z,0
2016-10-03T04:56:32.142Z,0
2016-10-03T04:57:32.220Z,0
2016-10-03T04:58:32.283Z,0
2016-10-03T04:59:32.349Z,0
2016-10-03T05:00:32.407Z,0
2016-10-03T05:01:32.465Z,0
2016-10-03T05:02:32.510Z,0
2016-10-03T05:03:32.549Z,0
2016-10-03T05:04:32.619Z,0
2016-10-03T05:05:32.680Z,0
2016-10-03T05:06:32.736Z,0
2016-10-03T05:07:32.811Z,0
2016-10-03T05:08:32.834Z,0
2016-10-03T05:09:32.904Z,0
2016-10-03T05:10:33.051Z,0
2016-10-03T05:11:33.016Z,0
2016-10-03T05:12:33.055Z,0
2016-10-03T05:13:33.123Z,0
2016-10-03T05:14:33.384Z,0
2016-10-03T05:15:33.260Z,0
2016-10-03T05:16:33.325Z,0
2016-10-03T05:17:33.351Z,0
2016-10-03T05:18:33.398Z,0
2016-10-03T05:19:33.475Z,0
2016-10-03T05:20:33.552Z,0
2016-10-03T05:21:33.576Z,0
2016-10-03T05:23:33.675Z,0
2016-10-03T05:24:33.755Z,0
2016-10-03T05:25:33.825Z,0
2016-10-03T05:26:33.883Z,0
2016-10-03T05:27:33.951Z,0
2016-10-03T05:28:33.986Z,0
2016-10-03T05:29:34.057Z,0
2016-10-03T05:30:34.097Z,0
2016-10-03T05:31:34.161Z,0
2016-10-03T05:32:34.218Z,0
2016-10-03T05:33:34.271Z,0
2016-10-03T05:34:34.325Z,0
2016-10-03T05:35:34.396Z,0
2016-10-03T05:36:34.426Z,0
2016-10-03T05:37:35.024Z,0
2016-10-03T05:38:34.561Z,0
2016-10-03T05:39:34.604Z,0
2016-10-03T05:40:34.671Z,0
2016-10-03T05:41:34.726Z,0
2016-10-03T05:42:34.983Z,0
2016-10-03T05:43:34.817Z,0
2016-10-03T05:44:34.952Z,0
2016-10-03T05:45:34.955Z,0
2016-10-03T05:46:35.036Z,0
2016-10-03T05:47:35.071Z,0
2016-10-03T05:48:35.128Z,0
2016-10-03T05:49:35.197Z,0
2016-10-03T05:50:35.244Z,0
2016-10-03T05:51:35.300Z,0
2016-10-03T05:52:35.380Z,0
2016-10-03T05:53:35.413Z,0
2016-10-03T05:54:35.494Z,0
2016-10-03T05:55:35.549Z,0
2016-10-03T05:56:35.579Z,0
2016-10-03T05:57:35.657Z,0
2016-10-03T05:58:35.691Z,0
2016-10-03T05:59:35.729Z,0
2016-10-03T06:00:35.804Z,0
2016-10-03T06:01:36.159Z,0
2016-10-03T06:02:35.901Z,0
2016-10-03T06:03:35.960Z,0
2016-10-03T06:04:36.034Z,5
2016-10-03T06:05:36.092Z,5
2016-10-03T06:06:36.247Z,5
2016-10-03T06:07:36.213Z,5
2016-10-03T06:08:36.269Z,5
2016-10-03T06:09:36.510Z,5
2016-10-03T06:10:36.604Z,5
2016-10-03T06:11:36.751Z,5
2016-10-03T06:12:36.530Z,5
2016-10-03T06:13:36.535Z,5
2016-10-03T06:14:36.613Z,5
2016-10-03T06:15:36.661Z,5
2016-10-03T06:16:36.707Z,5
2016-10-03T06:17:36.777Z,5
2016-10-03T06:18:36.831Z,5
2016-10-03T06:19:36.909Z,5
2016-10-03T06:20:36.924Z,5
2016-10-03T06:21:37.017Z,5
2016-10-03T06:22:37.062Z,5
2016-10-03T06:23:37.132Z,5
2016-10-03T06:24:37.169Z,5
2016-10-03T06:25:37.240Z,5
2016-10-03T06:26:37.302Z,5
2016-10-03T06:27:37.338Z,5
2016-10-03T06:28:37.404Z,5
2016-10-03T06:29:37.460Z,5
2016-10-03T06:30:37.517Z,10
2016-10-03T06:31:37.588Z,5
2016-10-03T06:32:37.610Z,5
2016-10-03T06:33:37.674Z,5
2016-10-03T06:34:37.746Z,5
2016-10-03T06:35:37.823Z,10
2016-10-03T06:36:37.852Z,10
2016-10-03T06:37:37.916Z,10
2016-10-03T06:38:38.174Z,10
2016-10-03T06:39:38.051Z,10
2016-10-03T06:40:38.087Z,10
2016-10-03T06:41:38.138Z,10
2016-10-03T06:42:38.212Z,10
2016-10-03T06:43:38.256Z,10
2016-10-03T06:44:38.334Z,10
2016-10-03T06:45:38.377Z,10
2016-10-03T06:46:38.434Z,10
2016-10-03T06:47:38.496Z,10
2016-10-03T06:48:38.552Z,10
2016-10-03T06:49:38.603Z,5
2016-10-03T06:50:38.629Z,5
2016-10-03T06:51:38.703Z,10
2016-10-03T06:52:38.761Z,10
2016-10-03T06:53:38.836Z,10
2016-10-03T06:54:38.883Z,10
2016-10-03T06:55:38.941Z,10
2016-10-03T06:56:38.985Z,10
2016-10-03T06:57:39.060Z,10
2016-10-03T06:58:39.099Z,10
2016-10-03T06:59:39.164Z,10
2016-10-03T07:00:39.224Z,10
2016-10-03T07:01:39.295Z,10
2016-10-03T07:02:39.360Z,10
2016-10-03T07:03:39.366Z,10
2016-10-03T07:04:39.458Z,5
2016-10-03T07:05:39.521Z,5
2016-10-03T07:06:39.569Z,5
2016-10-03T07:07:39.835Z,5
2016-10-03T07:08:39.662Z,10
2016-10-03T07:09:39.727Z,10
2016-10-03T07:10:39.794Z,15
2016-10-03T07:11:39.837Z,15
2016-10-03T07:12:39.896Z,15
2016-10-03T07:13:39.932Z,15
2016-10-03T07:14:40.024Z,15
2016-10-03T07:15:40.083Z,20
2016-10-03T07:16:40.151Z,20
2016-10-03T07:17:40.180Z,25
2016-10-03T07:18:40.222Z,25
2016-10-03T07:19:40.310Z,25
2016-10-03T07:20:40.347Z,20
2016-10-03T07:21:40.414Z,20
2016-10-03T07:22:40.474Z,20
2016-10-03T07:23:40.498Z,20
2016-10-03T07:24:40.579Z,20
2016-10-03T07:25:40.633Z,20
2016-10-03T07:26:40.716Z,20
2016-10-03T07:27:40.753Z,20
2016-10-03T07:28:40.800Z,20
2016-10-03T07:29:40.885Z,15
2016-10-03T07:30:40.920Z,15
2016-10-03T07:31:41.017Z,15
2016-10-03T07:32:41.011Z,15
2016-10-03T07:33:41.289Z,15
2016-10-03T07:34:41.117Z,15
2016-10-03T07:35:41.212Z,15
2016-10-03T07:36:41.249Z,15
2016-10-03T07:37:41.337Z,15
2016-10-03T07:38:41.351Z,15
2016-10-03T07:39:41.440Z,15
2016-10-03T07:40:41.511Z,15
2016-10-03T07:41:41.541Z,15
2016-10-03T07:42:41.618Z,15
2016-10-03T07:43:41.663Z,15
2016-10-03T07:44:41.701Z,15
2016-10-03T07:45:41.774Z,15
2016-10-03T07:46:41.813Z,15
2016-10-03T07:47:41.889Z,15
2016-10-03T07:48:41.930Z,15
2016-10-03T07:49:41.993Z,20
2016-10-03T07:50:42.068Z,20
2016-10-03T07:51:42.100Z,20
2016-10-03T07:52:42.157Z,20
2016-10-03T07:53:42.232Z,20
2016-10-03T07:54:42.268Z,20
2016-10-03T07:55:42.328Z,20
2016-10-03T07:56:42.380Z,20
2016-10-03T07:57:42.488Z,20
2016-10-03T07:58:42.514Z,20
2016-10-03T07:59:42.625Z,20
2016-10-03T08:00:42.813Z,25
2016-10-03T08:01:42.849Z,25
2016-10-03T08:02:42.965Z,25
2016-10-03T08:03:42.791Z,25
2016-10-03T08:04:42.857Z,25
2016-10-03T08:05:42.886Z,30
2016-10-03T08:06:42.980Z,30
2016-10-03T08:07:43.030Z,35
2016-10-03T08:08:43.069Z,30
2016-10-03T08:09:43.135Z,30
2016-10-03T08:10:43.194Z,30
2016-10-03T08:11:43.223Z,30
2016-10-03T08:12:43.307Z,30
2016-10-03T08:13:43.356Z,30
2016-10-03T08:14:43.629Z,30
2016-10-03T08:15:43.484Z,30
2016-10-03T08:16:43.512Z,35
2016-10-03T08:17:43.580Z,30
2016-10-03T08:18:43.632Z,30
2016-10-03T08:19:43.691Z,30
2016-10-03T08:20:43.732Z,35
2016-10-03T08:21:43.820Z,35
2016-10-03T08:22:43.862Z,40
2016-10-03T08:23:43.940Z,35
2016-10-03T08:24:43.993Z,35
2016-10-03T08:25:44.039Z,40
2016-10-03T08:26:44.113Z,40
2016-10-03T08:27:44.144Z,35
2016-10-03T08:28:44.406Z,30
2016-10-03T08:29:44.268Z,30
2016-10-03T08:30:44.349Z,35
2016-10-03T08:31:44.373Z,35
2016-10-03T08:32:44.444Z,35
2016-10-03T08:33:44.495Z,35
2016-10-03T08:34:44.563Z,35
2016-10-03T08:35:44.618Z,35
2016-10-03T08:36:44.672Z,30
2016-10-03T08:37:44.730Z,30
2016-10-03T08:38:44.787Z,35
2016-10-03T08:39:44.864Z,30
2016-10-03T08:40:44.891Z,30
2016-10-03T08:41:44.943Z,30
2016-10-03T08:42:45.008Z,35
2016-10-03T08:43:45.085Z,40
2016-10-03T08:44:45.124Z,40
2016-10-03T08:45:45.196Z,40
2016-10-03T08:46:45.225Z,40
2016-10-03T08:47:45.304Z,40
2016-10-03T08:48:45.335Z,45
2016-10-03T08:49:45.397Z,50
2016-10-03T08:50:45.456Z,50
2016-10-03T08:51:45.523Z,50
2016-10-03T08:52:45.576Z,50
2016-10-03T08:53:45.627Z,45
2016-10-03T08:54:45.715Z,45
2016-10-03T08:55:45.827Z,45
2016-10-03T08:56:45.792Z,40
2016-10-03T08:57:45.870Z,50
2016-10-03T08:58:45.927Z,50
2016-10-03T08:59:45.981Z,45
2016-10-03T09:00:46.059Z,45
2016-10-03T09:01:46.066Z,40
2016-10-03T09:02:46.141Z,40
2016-10-03T09:03:46.217Z,40
2016-10-03T09:04:46.274Z,40
2016-10-03T09:05:46.323Z,40
2016-10-03T09:06:46.349Z,40
2016-10-03T09:07:46.426Z,40
2016-10-03T09:08:46.486Z,40
2016-10-03T09:09:46.578Z,40
2016-10-03T09:10:46.618Z,40
2016-10-03T09:11:46.668Z,45
2016-10-03T09:12:46.721Z,45
2016-10-03T09:13:46.803Z,45
2016-10-03T09:14:46.853Z,45
2016-10-03T09:15:46.888Z,45
2016-10-03T09:16:46.960Z,45
2016-10-03T09:17:46.997Z,45
2016-10-03T09:18:47.063Z,50
2016-10-03T09:19:47.141Z,55
2016-10-03T09:20:47.197Z,50
2016-10-03T09:21:47.241Z,55
2016-10-03T09:22:47.288Z,50
2016-10-03T09:23:47.352Z,45
2016-10-03T09:24:47.423Z,45
2016-10-03T09:25:47.445Z,50
2016-10-03T09:26:47.530Z,50
2016-10-03T09:27:47.584Z,50
2016-10-03T09:28:47.643Z,50
2016-10-03T09:29:47.698Z,50
2016-10-03T09:30:47.755Z,55
2016-10-03T09:31:47.819Z,55
2016-10-03T09:32:47.885Z,55
2016-10-03T09:33:47.921Z,60
2016-10-03T09:34:48.009Z,55
2016-10-03T09:35:48.034Z,55
2016-10-03T09:36:48.114Z,55
2016-10-03T09:37:48.138Z,65
2016-10-03T09:38:48.212Z,65
2016-10-03T09:39:48.268Z,60
2016-10-03T09:40:48.324Z,60
2016-10-03T09:41:48.397Z,75
2016-10-03T09:42:48.439Z,60
2016-10-03T09:43:48.495Z,55
2016-10-03T09:44:48.575Z,60
2016-10-03T09:45:48.632Z,60
2016-10-03T09:46:48.679Z,65
2016-10-03T09:47:48.730Z,65
2016-10-03T09:48:48.820Z,65
2016-10-03T09:49:48.845Z,60
2016-10-03T09:50:48.907Z,60
2016-10-03T09:51:48.972Z,65
2016-10-03T09:52:49.040Z,60
2016-10-03T09:53:49.087Z,55
2016-10-03T09:54:49.130Z,50
2016-10-03T09:55:49.221Z,55
2016-10-03T09:56:49.271Z,55
2016-10-03T09:57:49.296Z,55
2016-10-03T09:58:49.376Z,65
2016-10-03T09:59:49.424Z,65
2016-10-03T10:00:49.498Z,65
2016-10-03T10:01:49.546Z,65
2016-10-03T10:02:49.594Z,60
2016-10-03T10:03:49.667Z,60
2016-10-03T10:04:49.715Z,60
2016-10-03T10:05:49.764Z,60
2016-10-03T10:06:49.835Z,60
2016-10-03T10:07:49.891Z,60
2016-10-03T10:08:49.954Z,60
2016-10-03T10:09:49.976Z,65
2016-10-03T10:10:50.064Z,65
2016-10-03T10:11:50.116Z,60
2016-10-03T10:12:50.162Z,60
2016-10-03T10:13:50.240Z,60
2016-10-03T10:14:50.277Z,50
2016-10-03T10:15:50.356Z,50
2016-10-03T10:16:50.416Z,50
2016-10-03T10:17:50.477Z,50
2016-10-03T10:18:50.527Z,55
2016-10-03T10:19:50.567Z,60
2016-10-03T10:20:50.632Z,75
2016-10-03T10:21:50.684Z,65
2016-10-03T10:22:50.747Z,85
2016-10-03T10:23:50.823Z,90
2016-10-03T10:24:50.838Z,75
2016-10-03T10:25:50.938Z,70
2016-10-03T10:26:50.969Z,80
2016-10-03T10:27:51.030Z,90
2016-10-03T10:28:51.079Z,95
2016-10-03T10:29:51.129Z,75
2016-10-03T10:30:51.225Z,125
2016-10-03T10:31:51.269Z,75
2016-10-03T10:32:51.342Z,80
2016-10-03T10:33:51.371Z,80
2016-10-03T10:34:51.455Z,85
2016-10-03T10:35:51.477Z,90
2016-10-03T10:36:51.579Z,75
2016-10-03T10:37:51.633Z,80
2016-10-03T10:38:51.667Z,75
2016-10-03T10:39:51.739Z,75
2016-10-03T10:40:51.793Z,70
2016-10-03T10:41:51.843Z,100
2016-10-03T10:42:51.913Z,120
2016-10-03T10:43:51.949Z,75
2016-10-03T10:44:52.042Z,65
2016-10-03T10:45:52.067Z,80
2016-10-03T10:46:52.139Z,75
2016-10-03T10:47:52.194Z,70
2016-10-03T10:48:52.259Z,60
2016-10-03T10:49:52.300Z,75
2016-10-03T10:50:52.353Z,80
2016-10-03T10:51:52.440Z,70
2016-10-03T10:52:52.454Z,65
2016-10-03T10:53:52.512Z,65
2016-10-03T10:54:52.576Z,60
2016-10-03T10:55:52.632Z,50
2016-10-03T10:56:52.698Z,50
2016-10-03T10:57:52.777Z,60
2016-10-03T10:58:52.821Z,50
2016-10-03T10:59:52.891Z,45
2016-10-03T11:00:52.949Z,50
2016-10-03T11:01:52.998Z,45
2016-10-03T11:02:53.095Z,45
2016-10-03T11:03:53.101Z,60
2016-10-03T11:04:53.178Z,65
2016-10-03T11:05:53.229Z,70
2016-10-03T11:06:53.280Z,70
2016-10-03T11:07:53.335Z,70
2016-10-03T11:08:53.391Z,60
2016-10-03T11:09:53.442Z,75
2016-10-03T11:10:53.537Z,60
2016-10-03T11:11:53.564Z,55
2016-10-03T11:12:53.650Z,50
2016-10-03T11:13:53.674Z,50
2016-10-03T11:14:53.760Z,50
2016-10-03T11:15:53.790Z,60
2016-10-03T11:16:53.858Z,55
2016-10-03T11:17:53.914Z,55
2016-10-03T11:18:53.970Z,50
2016-10-03T11:19:54.040Z,50
2016-10-03T11:20:54.109Z,60
2016-10-03T11:21:54.148Z,65
2016-10-03T11:22:54.182Z,110
2016-10-03T11:23:54.255Z,65
2016-10-03T11:24:54.302Z,70
2016-10-03T11:25:54.366Z,70
2016-10-03T11:26:54.450Z,55
2016-10-03T11:27:54.492Z,55
2016-10-03T11:28:54.523Z,55
2016-10-03T11:29:54.621Z,60
2016-10-03T11:30:54.664Z,75
2016-10-03T11:31:54.741Z,55
2016-10-03T11:32:54.777Z,55
2016-10-03T11:33:54.847Z,65
2016-10-03T11:34:54.879Z,205
2016-10-03T11:35:54.945Z,75
2016-10-03T11:36:55.009Z,65
2016-10-03T11:37:55.081Z,55
2016-10-03T11:38:55.096Z,55
2016-10-03T11:39:55.184Z,55
2016-10-03T11:40:55.205Z,55
2016-10-03T11:41:55.316Z,50
2016-10-03T11:42:55.329Z,60
2016-10-03T11:43:55.387Z,285
2016-10-03T11:44:55.469Z,155
2016-10-03T11:45:55.494Z,75
2016-10-03T11:46:55.564Z,125
2016-10-03T11:47:55.645Z,155
2016-10-03T11:48:55.672Z,75
2016-10-03T11:49:55.777Z,60
2016-10-03T11:50:56.122Z,70
2016-10-03T11:51:55.889Z,75
2016-10-03T11:52:55.908Z,75
2016-10-03T11:53:55.994Z,85
2016-10-03T11:54:56.043Z,85
2016-10-03T11:55:56.076Z,120
2016-10-03T11:56:56.144Z,75
2016-10-03T11:57:56.189Z,75
2016-10-03T11:58:56.265Z,70
2016-10-03T11:59:56.312Z,60
2016-10-03T12:00:56.388Z,65
2016-10-03T12:01:56.451Z,70
2016-10-03T12:02:56.500Z,80
2016-10-03T12:03:56.558Z,95
2016-10-03T12:04:56.593Z,105
2016-10-03T12:05:56.669Z,115
2016-10-03T12:06:56.729Z,125
2016-10-03T12:07:56.773Z,150
2016-10-03T12:08:56.835Z,85
2016-10-03T12:09:56.900Z,50
2016-10-03T12:10:56.946Z,45
2016-10-03T12:11:56.990Z,40
2016-10-03T12:12:57.084Z,40
2016-10-03T12:13:57.120Z,45
2016-10-03T12:14:57.158Z,55
2016-10-03T12:15:57.261Z,60
2016-10-03T12:16:57.312Z,50
2016-10-03T12:17:57.370Z,45
2016-10-03T12:18:57.400Z,45
2016-10-03T12:19:57.442Z,45
2016-10-03T12:20:57.517Z,40
2016-10-03T12:21:57.591Z,40
2016-10-03T12:22:57.641Z,40
2016-10-03T12:23:57.693Z,40
2016-10-03T12:24:57.761Z,35
2016-10-03T12:25:57.808Z,40
2016-10-03T12:26:57.853Z,40
2016-10-03T12:27:57.933Z,40
2016-10-03T12:28:58.002Z,40
2016-10-03T12:29:58.047Z,45
2016-10-03T12:30:58.097Z,50
2016-10-03T12:31:58.483Z,40
2016-10-03T12:32:58.219Z,40
2016-10-03T12:33:58.284Z,40
2016-10-03T12:34:58.334Z,50
2016-10-03T12:35:58.393Z,45
2016-10-03T12:36:58.459Z,45
2016-10-03T12:37:58.505Z,45
2016-10-03T12:38:58.560Z,40
2016-10-03T12:39:58.607Z,40
2016-10-03T12:40:58.652Z,45
2016-10-03T12:41:58.721Z,45
2016-10-03T12:42:58.817Z,75
2016-10-03T12:43:58.860Z,55
2016-10-03T12:44:58.893Z,50
2016-10-03T12:45:58.938Z,50
2016-10-03T12:46:59.021Z,30
2016-10-03T12:47:59.081Z,40
2016-10-03T12:48:59.113Z,50
2016-10-03T12:49:59.200Z,60
2016-10-03T12:50:59.235Z,95
2016-10-03T12:51:59.311Z,140
2016-10-03T12:52:59.371Z,95
2016-10-03T12:53:59.416Z,155
2016-10-03T12:54:59.484Z,105
2016-10-03T12:55:59.545Z,95
2016-10-03T12:56:59.577Z,35
2016-10-03T12:57:59.658Z,35
2016-10-03T12:58:59.731Z,45
2016-10-03T12:59:59.782Z,45
2016-10-03T13:00:59.815Z,40
2016-10-03T13:01:59.899Z,45
2016-10-03T13:02:59.942Z,40
2016-10-03T13:04:00.020Z,35
2016-10-03T13:05:00.065Z,45
2016-10-03T13:06:00.094Z,40
2016-10-03T13:07:00.141Z,30
2016-10-03T13:08:00.234Z,35
2016-10-03T13:09:00.286Z,30
2016-10-03T13:10:00.323Z,30
2016-10-03T13:11:00.428Z,30
2016-10-03T13:12:00.453Z,25
2016-10-03T13:13:00.512Z,30
2016-10-03T13:14:00.567Z,30
2016-10-03T13:15:00.639Z,30
2016-10-03T13:16:00.904Z,30
2016-10-03T13:17:00.730Z,35
2016-10-03T13:18:00.797Z,45
2016-10-03T13:19:00.902Z,40
2016-10-03T13:20:00.918Z,40
2016-10-03T13:21:00.962Z,30
2016-10-03T13:22:01.035Z,30
2016-10-03T13:23:01.071Z,25
2016-10-03T13:24:01.132Z,40
2016-10-03T13:25:01.181Z,45
2016-10-03T13:26:01.271Z,30
2016-10-03T13:27:01.305Z,40
2016-10-03T13:28:01.397Z,35
2016-10-03T13:29:01.442Z,40
2016-10-03T13:30:01.484Z,40
2016-10-03T13:31:01.542Z,35
2016-10-03T13:32:01.613Z,50
2016-10-03T13:33:01.670Z,50
2016-10-03T13:34:01.728Z,40
2016-10-03T13:35:01.793Z,50
2016-10-03T13:36:01.829Z,60
2016-10-03T13:37:02.208Z,45
2016-10-03T13:38:01.929Z,40
2016-10-03T13:39:02.001Z,85
2016-10-03T13:40:02.056Z,75
2016-10-03T13:41:02.142Z,95
2016-10-03T13:42:02.184Z,60
2016-10-03T13:43:02.225Z,75
2016-10-03T13:44:02.305Z,70
2016-10-03T13:45:02.345Z,80
2016-10-03T13:46:02.402Z,70
2016-10-03T13:47:02.459Z,50
2016-10-03T13:48:02.595Z,65
2016-10-03T13:49:02.770Z,60
2016-10-03T13:50:03.097Z,40
2016-10-03T13:51:02.703Z,30
2016-10-03T13:52:02.750Z,25
2016-10-03T13:53:02.796Z,35
2016-10-03T13:54:02.845Z,50
2016-10-03T13:55:02.911Z,60
2016-10-03T13:56:02.965Z,35
2016-10-03T13:57:03.061Z,30
2016-10-03T13:58:03.102Z,20
2016-10-03T13:59:03.159Z,20
2016-10-03T14:00:03.216Z,30
2016-10-03T14:01:03.481Z,25
2016-10-03T14:02:03.320Z,25
2016-10-03T14:03:03.380Z,30
2016-10-03T14:04:03.443Z,25
2016-10-03T14:05:03.493Z,20
2016-10-03T14:06:03.555Z,25
2016-10-03T14:07:03.586Z,30
2016-10-03T14:08:03.670Z,25
2016-10-03T14:09:03.740Z,25
2016-10-03T14:10:03.774Z,25
2016-10-03T14:11:03.863Z,15
2016-10-03T14:12:03.892Z,20
2016-10-03T14:13:03.960Z,20
2016-10-03T14:14:04.028Z,20
2016-10-03T14:15:04.058Z,20
2016-10-03T14:16:04.117Z,20
2016-10-03T14:17:04.178Z,20
2016-10-03T14:18:04.258Z,15
2016-10-03T14:19:04.295Z,20
2016-10-03T14:20:04.360Z,25
2016-10-03T14:21:04.407Z,20
2016-10-03T14:22:04.456Z,25
2016-10-03T14:23:04.534Z,20
2016-10-03T14:24:04.592Z,15
2016-10-03T14:25:04.616Z,20
2016-10-03T14:26:04.722Z,20
2016-10-03T14:27:04.832Z,35
2016-10-03T14:28:04.795Z,40
2016-10-03T14:29:04.880Z,40
2016-10-03T14:30:04.937Z,70
2016-10-03T14:31:04.987Z,60